createdAt,value
2022-10-06T00:01:51.934Z,12.24
2022-10-06T00:04:20.784Z,12.27
2022-10-06T00:06:49.392Z,12.27
2022-10-06T00:09:19.595Z,12.29
2022-10-06T00:11:48.366Z,12.29
2022-10-06T00:14:17.111Z,12.28
2022-10-06T00:16:45.861Z,12.30
2022-10-06T00:19:14.481Z,12.30
2022-10-06T00:21:43.085Z,12.33
2022-10-06T00:24:11.767Z,12.34
2022-10-06T00:26:41.914Z,12.33
2022-10-06T00:29:13.581Z,12.36
2022-10-06T00:31:43.903Z,12.40
2022-10-06T00:34:13.016Z,12.42
2022-10-06T00:36:41.750Z,12.45
2022-10-06T00:39:10.609Z,12.48
2022-10-06T00:41:42.016Z,12.52
2022-10-06T00:44:10.763Z,12.51
2022-10-06T00:46:46.462Z,12.54
2022-10-06T00:49:22.173Z,12.54
2022-10-06T00:51:58.310Z,12.53
2022-10-06T00:54:28.727Z,12.55
2022-10-06T00:56:59.555Z,12.58
2022-10-06T00:59:28.231Z,12.55
2022-10-06T01:02:05.340Z,12.58
2022-10-06T01:04:37.486Z,12.59
2022-10-06T01:07:08.008Z,12.57
2022-10-06T01:09:39.698Z,12.59
2022-10-06T01:12:10.913Z,12.62
2022-10-06T01:14:42.351Z,12.63
2022-10-06T01:17:20.837Z,12.63
2022-10-06T01:19:55.696Z,12.64
2022-10-06T01:22:35.400Z,12.63
2022-10-06T01:25:05.670Z,12.63
2022-10-06T01:27:37.753Z,12.57
2022-10-06T01:30:12.369Z,12.56
2022-10-06T01:32:41.564Z,12.56
2022-10-06T01:35:11.695Z,12.57
2022-10-06T01:37:42.975Z,12.58
2022-10-06T01:40:25.702Z,12.57
2022-10-06T01:42:54.546Z,12.58
2022-10-06T01:45:23.379Z,12.58
2022-10-06T01:47:52.958Z,12.58
2022-10-06T01:50:21.757Z,12.56
2022-10-06T01:52:52.000Z,12.57
2022-10-06T01:55:20.747Z,12.55
2022-10-06T01:57:50.198Z,12.57
2022-10-06T02:00:20.622Z,12.57
2022-10-06T02:02:50.849Z,12.59
2022-10-06T02:05:19.834Z,12.58
2022-10-06T02:07:53.472Z,12.57
2022-10-06T02:10:22.290Z,12.56
2022-10-06T02:12:53.189Z,12.56
2022-10-06T02:15:25.194Z,12.55
2022-10-06T02:17:54.705Z,12.55
2022-10-06T02:20:28.848Z,12.53
2022-10-06T02:22:59.256Z,12.57
2022-10-06T02:25:28.467Z,12.55
2022-10-06T02:27:57.629Z,12.55
2022-10-06T02:30:26.318Z,12.55
2022-10-06T02:32:55.612Z,12.55
2022-10-06T02:35:24.366Z,12.55
2022-10-06T02:37:53.439Z,12.55
2022-10-06T02:40:24.599Z,12.54
2022-10-06T02:42:54.486Z,12.56
2022-10-06T02:45:24.519Z,12.58
2022-10-06T02:47:54.971Z,12.60
2022-10-06T02:50:23.960Z,12.61
2022-10-06T02:52:52.917Z,12.63
2022-10-06T02:55:23.176Z,12.65
2022-10-06T02:57:51.870Z,12.66
2022-10-06T03:00:21.455Z,12.67
2022-10-06T03:02:50.267Z,12.67
2022-10-06T03:05:19.065Z,12.67
2022-10-06T03:07:47.892Z,12.68
2022-10-06T03:10:16.986Z,12.67
2022-10-06T03:12:47.055Z,12.68
2022-10-06T03:15:16.234Z,12.67
2022-10-06T03:17:45.017Z,12.67
2022-10-06T03:20:13.721Z,12.66
2022-10-06T03:22:43.493Z,12.67
2022-10-06T03:25:13.313Z,12.65
2022-10-06T03:27:42.048Z,12.66
2022-10-06T03:30:13.722Z,12.67
2022-10-06T03:32:42.468Z,12.67
2022-10-06T03:35:12.375Z,12.66
2022-10-06T03:37:42.629Z,12.66
2022-10-06T03:40:12.109Z,12.65
2022-10-06T03:42:40.891Z,12.66
2022-10-06T03:45:12.635Z,12.63
2022-10-06T03:47:41.457Z,12.61
2022-10-06T03:50:11.359Z,12.59
2022-10-06T03:52:40.231Z,12.57
2022-10-06T03:55:10.172Z,12.55
2022-10-06T03:57:38.902Z,12.55
2022-10-06T04:00:09.290Z,12.54
2022-10-06T04:02:42.336Z,12.55
2022-10-06T04:05:11.852Z,12.53
2022-10-06T04:07:40.666Z,12.50
2022-10-06T04:10:11.534Z,12.47
2022-10-06T04:12:40.529Z,12.50
2022-10-06T04:15:10.874Z,12.49
2022-10-06T04:17:41.155Z,12.49
2022-10-06T04:20:10.217Z,12.49
2022-10-06T04:22:38.960Z,12.50
2022-10-06T04:25:09.585Z,12.48
2022-10-06T04:27:38.514Z,12.47
2022-10-06T04:30:14.667Z,12.46
2022-10-06T04:32:46.256Z,12.45
2022-10-06T04:35:15.679Z,12.45
2022-10-06T04:37:44.938Z,12.41
2022-10-06T04:40:14.919Z,12.36
2022-10-06T04:42:45.638Z,12.36
2022-10-06T04:45:17.457Z,12.34
2022-10-06T04:47:50.934Z,12.35
2022-10-06T04:50:20.054Z,12.36
2022-10-06T04:53:06.858Z,12.40
2022-10-06T04:55:35.581Z,12.46
2022-10-06T04:58:07.072Z,12.50
2022-10-06T05:00:36.702Z,12.54
2022-10-06T05:03:07.351Z,12.56
2022-10-06T05:05:37.465Z,12.60
2022-10-06T05:08:06.490Z,12.64
2022-10-06T05:10:35.275Z,12.67
2022-10-06T05:13:06.137Z,12.70
2022-10-06T05:15:35.226Z,12.75
2022-10-06T05:18:04.263Z,12.78
2022-10-06T05:20:34.426Z,12.83
2022-10-06T05:23:07.842Z,12.89
2022-10-06T05:25:36.650Z,12.97
2022-10-06T05:28:05.478Z,13.04
2022-10-06T05:30:34.178Z,13.09
2022-10-06T05:33:03.163Z,13.17
2022-10-06T05:35:33.243Z,13.21
2022-10-06T05:38:01.967Z,13.25
2022-10-06T05:40:30.543Z,13.30
2022-10-06T05:42:59.630Z,13.34
2022-10-06T05:45:29.118Z,13.36
2022-10-06T05:47:57.785Z,13.38
2022-10-06T05:50:27.103Z,13.42
2022-10-06T05:52:58.108Z,13.46
2022-10-06T05:55:27.294Z,13.51
2022-10-06T05:57:56.577Z,13.54
2022-10-06T06:00:25.507Z,13.58
2022-10-06T06:02:54.459Z,13.61
2022-10-06T06:05:23.248Z,13.64
2022-10-06T06:07:51.917Z,13.66
2022-10-06T06:10:21.987Z,13.67
2022-10-06T06:12:50.664Z,13.69
2022-10-06T06:16:04.450Z,13.71
2022-10-06T06:18:38.434Z,13.74
2022-10-06T06:21:11.095Z,13.77
2022-10-06T06:23:44.306Z,13.79
2022-10-06T06:26:18.612Z,13.81
2022-10-06T06:28:51.877Z,13.83
2022-10-06T06:31:26.831Z,13.86
2022-10-06T06:33:57.890Z,13.89
2022-10-06T06:36:35.775Z,13.93
2022-10-06T06:39:10.467Z,13.97
2022-10-06T06:41:45.153Z,13.86
2022-10-06T06:44:36.860Z,13.76
2022-10-06T06:47:28.260Z,13.64
2022-10-06T06:50:00.306Z,13.59
2022-10-06T06:52:31.254Z,13.53
2022-10-06T06:55:00.401Z,13.44
2022-10-06T06:57:31.131Z,13.37
2022-10-06T07:00:02.827Z,13.33
2022-10-06T07:02:33.246Z,13.23
2022-10-06T07:05:02.516Z,13.19
2022-10-06T07:07:32.137Z,13.17
2022-10-06T07:10:01.180Z,13.10
2022-10-06T07:12:34.200Z,13.07
2022-10-06T07:15:20.445Z,13.07
2022-10-06T07:18:11.144Z,13.03
2022-10-06T07:20:57.511Z,13.07
2022-10-06T07:23:44.018Z,13.06
2022-10-06T07:26:17.240Z,13.03
2022-10-06T07:28:49.600Z,13.01
2022-10-06T07:31:20.182Z,13.05
2022-10-06T07:33:49.989Z,13.08
2022-10-06T07:36:20.737Z,13.09
2022-10-06T07:38:49.462Z,13.11
2022-10-06T07:41:20.064Z,13.12
2022-10-06T07:43:58.310Z,13.15
2022-10-06T07:46:29.934Z,13.19
2022-10-06T07:49:03.869Z,13.26
2022-10-06T07:51:33.524Z,13.30
2022-10-06T07:54:04.240Z,13.35
2022-10-06T07:56:40.302Z,13.37
2022-10-06T07:59:10.360Z,13.39
2022-10-06T08:01:41.045Z,13.38
2022-10-06T08:04:09.764Z,13.37
2022-10-06T08:06:38.612Z,13.39
2022-10-06T08:09:07.876Z,13.41
2022-10-06T08:11:36.594Z,13.44
2022-10-06T08:14:05.318Z,13.49
2022-10-06T08:16:35.386Z,13.52
2022-10-06T08:19:04.581Z,13.56
2022-10-06T08:21:35.628Z,13.60
2022-10-06T08:24:04.374Z,13.60
2022-10-06T08:26:33.303Z,13.64
2022-10-06T08:29:03.368Z,13.68
2022-10-06T08:31:34.811Z,13.73
2022-10-06T08:34:04.423Z,13.80
2022-10-06T08:36:35.272Z,13.84
2022-10-06T08:39:03.899Z,13.88
2022-10-06T08:41:43.297Z,13.91
2022-10-06T08:44:30.430Z,13.95
2022-10-06T08:47:05.538Z,13.98
2022-10-06T08:49:41.246Z,14.01
2022-10-06T08:52:27.587Z,14.00
2022-10-06T08:55:11.614Z,14.04
2022-10-06T08:58:03.296Z,14.07
2022-10-06T09:00:34.194Z,14.13
2022-10-06T09:03:05.683Z,14.19
2022-10-06T09:05:35.120Z,14.22
2022-10-06T09:08:35.492Z,14.22
2022-10-06T09:11:27.559Z,14.32
2022-10-06T09:14:04.500Z,14.40
2022-10-06T09:16:40.465Z,14.41
2022-10-06T09:19:20.398Z,14.47
2022-10-06T09:21:53.182Z,14.55
2022-10-06T09:24:34.686Z,14.56
2022-10-06T09:27:19.692Z,14.64
2022-10-06T09:29:50.136Z,14.60
2022-10-06T09:32:21.096Z,14.64
2022-10-06T09:34:56.389Z,14.75
2022-10-06T09:37:25.416Z,14.73
2022-10-06T09:39:55.394Z,14.64
2022-10-06T09:42:29.766Z,14.85
2022-10-06T09:45:02.348Z,14.98
2022-10-06T09:47:40.964Z,15.11
2022-10-06T09:50:25.843Z,15.29
2022-10-06T09:53:16.232Z,15.70
2022-10-06T09:55:54.920Z,15.97
2022-10-06T09:58:31.539Z,15.92
2022-10-06T10:01:03.699Z,15.80
2022-10-06T10:04:18.931Z,15.68
2022-10-06T10:06:43.548Z,15.63
2022-10-06T10:09:27.771Z,15.62
2022-10-06T10:12:27.818Z,15.61
2022-10-06T10:15:24.341Z,15.48
2022-10-06T10:17:55.804Z,15.55
2022-10-06T10:20:34.322Z,15.56
2022-10-06T10:23:19.985Z,15.62
2022-10-06T10:26:27.238Z,15.70
2022-10-06T10:29:43.049Z,15.57
2022-10-06T10:32:18.380Z,15.39
2022-10-06T10:35:04.507Z,15.46
2022-10-06T10:37:43.147Z,15.47
2022-10-06T10:40:28.470Z,15.55
2022-10-06T10:43:17.653Z,15.66
2022-10-06T10:45:52.592Z,15.88
2022-10-06T10:48:31.551Z,15.92
2022-10-06T10:51:08.427Z,16.08
2022-10-06T10:53:48.065Z,15.93
2022-10-06T10:56:23.404Z,15.72
2022-10-06T10:58:57.550Z,15.98
2022-10-06T11:01:35.232Z,16.19
2022-10-06T11:04:05.142Z,16.57
2022-10-06T11:07:23.669Z,16.29
2022-10-06T11:10:04.717Z,16.18
2022-10-06T11:13:04.644Z,16.05
2022-10-06T11:15:56.693Z,15.85
2022-10-06T11:18:48.240Z,15.76
2022-10-06T11:21:25.304Z,15.69
2022-10-06T11:24:01.807Z,15.62
2022-10-06T11:27:15.145Z,15.45
2022-10-06T11:30:02.006Z,15.40
2022-10-06T11:32:51.438Z,15.36
2022-10-06T11:35:24.080Z,15.34
2022-10-06T11:38:01.195Z,15.36
2022-10-06T11:40:53.525Z,15.36
2022-10-06T11:43:35.576Z,15.32
2022-10-06T11:46:32.109Z,15.26
2022-10-06T11:49:54.904Z,15.37
2022-10-06T11:52:54.453Z,15.47
2022-10-06T11:55:26.608Z,15.45
2022-10-06T12:01:03.296Z,15.45
2022-10-06T12:03:48.563Z,15.42
2022-10-06T12:07:06.986Z,15.35
2022-10-06T12:09:53.701Z,15.37
2022-10-06T12:13:05.286Z,15.43
2022-10-06T12:19:21.464Z,15.27
2022-10-06T12:22:02.144Z,15.30
2022-10-06T12:24:43.895Z,15.22
2022-10-06T12:27:34.530Z,15.17
2022-10-06T12:30:21.298Z,15.11
2022-10-06T12:32:58.379Z,15.08
2022-10-06T12:35:33.363Z,15.02
2022-10-06T12:38:06.358Z,15.02
2022-10-06T12:40:55.964Z,15.09
2022-10-06T12:43:35.177Z,15.07
2022-10-06T12:46:16.390Z,15.05
2022-10-06T12:49:04.031Z,15.07
2022-10-06T12:51:41.103Z,15.09
2022-10-06T12:54:20.558Z,15.10
2022-10-06T12:57:02.116Z,15.04
2022-10-06T12:59:33.990Z,15.09
2022-10-06T13:02:09.874Z,15.08
2022-10-06T13:04:43.179Z,15.04
2022-10-06T13:07:20.693Z,14.97
2022-10-06T13:10:27.537Z,14.93
2022-10-06T13:12:58.190Z,14.88
2022-10-06T13:15:35.101Z,14.84
2022-10-06T13:18:16.169Z,14.85
2022-10-06T13:20:54.049Z,14.80
2022-10-06T13:23:43.623Z,14.74
2022-10-06T13:26:24.890Z,14.71
2022-10-06T13:29:22.548Z,14.73
2022-10-06T13:32:08.076Z,14.71
2022-10-06T13:34:43.360Z,14.75
2022-10-06T13:37:23.477Z,14.81
2022-10-06T13:39:57.720Z,14.84
2022-10-06T13:42:49.418Z,14.86
2022-10-06T13:45:26.403Z,14.81
2022-10-06T13:48:17.130Z,14.81
2022-10-06T13:53:31.629Z,14.72
2022-10-06T13:56:36.322Z,14.69
2022-10-06T13:59:38.622Z,14.64
2022-10-06T14:02:26.881Z,14.64
2022-10-06T14:05:24.685Z,14.64
2022-10-06T14:08:05.762Z,14.61
2022-10-06T14:11:10.165Z,14.61
2022-10-06T14:13:53.361Z,14.58
2022-10-06T14:16:29.025Z,14.53
2022-10-06T14:19:02.125Z,14.52
2022-10-06T14:21:40.208Z,14.52
2022-10-06T14:24:26.385Z,14.52
2022-10-06T14:27:09.071Z,14.50
2022-10-06T14:29:41.412Z,14.52
2022-10-06T14:32:15.470Z,14.53
2022-10-06T14:34:47.149Z,14.53
2022-10-06T14:37:18.253Z,14.53
2022-10-06T14:40:11.551Z,14.47
2022-10-06T14:43:12.673Z,14.45
2022-10-06T14:45:50.306Z,14.39
2022-10-06T14:48:20.239Z,14.35
2022-10-06T14:50:49.587Z,14.33
2022-10-06T14:53:19.022Z,14.31
2022-10-06T14:55:50.026Z,14.27
2022-10-06T14:58:21.025Z,14.26
2022-10-06T15:00:53.068Z,14.20
2022-10-06T15:03:21.940Z,14.18
2022-10-06T15:06:08.091Z,14.15
2022-10-06T15:08:37.356Z,14.12
2022-10-06T15:11:06.997Z,14.06
2022-10-06T15:13:36.984Z,14.04
2022-10-06T15:16:08.169Z,13.98
2022-10-06T15:18:40.694Z,13.97
2022-10-06T15:21:13.153Z,13.93
2022-10-06T15:23:42.072Z,13.91
2022-10-06T15:26:30.180Z,13.86
2022-10-06T15:29:01.923Z,13.82
2022-10-06T15:31:35.481Z,13.78
2022-10-06T15:34:07.535Z,13.73
2022-10-06T15:36:38.710Z,13.69
2022-10-06T15:39:09.874Z,13.73
2022-10-06T15:42:32.049Z,13.72
2022-10-06T15:45:05.099Z,13.65
2022-10-06T15:47:38.706Z,13.56
2022-10-06T15:50:08.630Z,13.47
2022-10-06T15:57:05.742Z,13.34
2022-10-06T15:59:35.350Z,13.35
2022-10-06T16:02:16.315Z,13.32
2022-10-06T16:04:57.521Z,13.30
2022-10-06T16:07:26.634Z,13.27
2022-10-06T16:09:55.611Z,13.21
2022-10-06T16:12:28.712Z,13.10
2022-10-06T16:14:57.769Z,13.00
2022-10-06T16:17:27.254Z,12.96
2022-10-06T16:20:05.722Z,12.89
2022-10-06T16:22:35.925Z,12.86
2022-10-06T16:25:05.828Z,12.89
2022-10-06T16:27:35.520Z,12.92
2022-10-06T16:30:04.588Z,12.86
2022-10-06T16:32:52.783Z,12.82
2022-10-06T16:35:37.553Z,12.72
2022-10-06T16:38:52.981Z,12.64
2022-10-06T16:46:37.557Z,12.56
2022-10-06T16:49:30.506Z,12.55
2022-10-06T16:56:42.197Z,12.18
2022-10-06T17:04:53.316Z,12.00
2022-10-06T17:07:22.573Z,12.11
2022-10-06T17:10:18.444Z,12.13
2022-10-06T17:17:08.675Z,11.88
2022-10-06T17:19:37.657Z,11.74
2022-10-06T17:22:06.703Z,11.70
2022-10-06T17:24:39.030Z,11.72
2022-10-06T17:27:08.262Z,11.79
2022-10-06T17:29:41.382Z,11.80
2022-10-06T17:32:47.147Z,11.73
2022-10-06T17:35:22.110Z,11.54
2022-10-06T17:38:28.654Z,11.44
2022-10-06T17:41:09.822Z,11.34
2022-10-06T17:43:47.081Z,11.48
2022-10-06T17:46:21.081Z,11.54
2022-10-06T17:49:04.923Z,11.50
2022-10-06T17:52:13.033Z,11.32
2022-10-06T17:54:45.114Z,11.21
2022-10-06T17:57:14.277Z,11.19
2022-10-06T17:59:48.438Z,11.24
2022-10-06T18:04:01.272Z,11.36
2022-10-06T18:06:56.735Z,11.15
2022-10-06T18:11:16.325Z,11.03
2022-10-06T18:18:08.008Z,10.91
2022-10-06T18:37:08.984Z,10.84
2022-10-06T18:39:41.087Z,10.72
2022-10-06T18:42:11.987Z,10.61
2022-10-06T18:45:04.201Z,10.59
2022-10-06T18:47:50.560Z,10.60
2022-10-06T18:50:20.916Z,10.55
2022-10-06T18:52:51.214Z,10.44
2022-10-06T18:55:20.803Z,10.34
2022-10-06T18:57:50.482Z,10.26
2022-10-06T19:00:19.923Z,10.39
2022-10-06T19:02:52.538Z,10.48
2022-10-06T19:05:23.499Z,10.44
2022-10-06T19:08:00.202Z,10.28
2022-10-06T19:10:29.904Z,10.21
2022-10-06T19:12:59.586Z,10.28
2022-10-06T19:15:28.959Z,10.36
2022-10-06T19:18:03.820Z,10.29
2022-10-06T19:20:49.248Z,10.07
2022-10-06T19:23:19.371Z,9.97
2022-10-06T19:26:00.698Z,10.02
2022-10-06T19:28:31.753Z,9.93
2022-10-06T19:31:03.178Z,9.84
2022-10-06T19:33:33.971Z,9.93
2022-10-06T19:36:04.354Z,9.92
2022-10-06T19:38:37.465Z,9.87
2022-10-06T19:41:54.784Z,9.80
2022-10-06T19:44:48.620Z,9.75
2022-10-06T19:47:18.251Z,9.70
2022-10-06T19:49:48.710Z,9.61
2022-10-06T19:53:13.339Z,9.54
2022-10-06T19:55:42.363Z,9.52
2022-10-06T19:58:11.308Z,9.49
2022-10-06T20:00:43.832Z,9.43
2022-10-06T20:03:15.948Z,9.40
2022-10-06T20:05:44.843Z,9.37
2022-10-06T20:08:20.288Z,9.39
2022-10-06T20:10:52.098Z,9.51
2022-10-06T20:17:49.817Z,9.39
2022-10-06T20:20:20.672Z,9.25
2022-10-06T20:22:50.105Z,9.13
2022-10-06T20:25:21.691Z,9.11
2022-10-06T20:27:50.627Z,9.28
2022-10-06T20:30:20.597Z,9.30
2022-10-06T20:32:49.710Z,9.16
2022-10-06T20:35:19.112Z,9.08
2022-10-06T20:37:48.078Z,9.14
2022-10-06T20:40:34.614Z,9.29
2022-10-06T20:43:07.907Z,9.21
2022-10-06T20:45:39.053Z,9.11
2022-10-06T20:48:08.334Z,9.03
2022-10-06T20:50:37.225Z,8.96
2022-10-06T20:53:06.557Z,9.04
2022-10-06T20:55:35.390Z,9.04
2022-10-06T20:58:05.550Z,9.05
2022-10-06T21:00:34.947Z,8.94
2022-10-06T21:03:03.717Z,9.04
2022-10-06T21:05:32.990Z,8.93
2022-10-06T21:08:02.303Z,8.86
2022-10-06T21:10:31.217Z,8.79
2022-10-06T21:13:02.628Z,8.75
2022-10-06T21:15:33.438Z,8.73
2022-10-06T21:18:03.718Z,8.81
2022-10-06T21:20:32.688Z,8.88
2022-10-06T21:23:01.544Z,8.78
2022-10-06T21:25:30.479Z,8.69
2022-10-06T21:27:59.371Z,8.83
2022-10-06T21:30:28.227Z,8.78
2022-10-06T21:32:59.549Z,8.65
2022-10-06T21:35:28.492Z,8.68
2022-10-06T21:37:57.202Z,8.62
2022-10-06T21:40:26.058Z,8.55
2022-10-06T21:42:55.154Z,8.47
2022-10-06T21:45:24.971Z,8.49
2022-10-06T21:47:54.714Z,8.43
2022-10-06T21:50:25.128Z,8.53
2022-10-06T21:52:53.971Z,8.55
2022-10-06T21:55:22.832Z,8.48
2022-10-06T21:57:51.641Z,8.45
2022-10-06T22:00:20.625Z,8.41
2022-10-06T22:02:49.684Z,8.34
2022-10-06T22:05:24.904Z,8.23
2022-10-06T22:08:32.635Z,8.18
2022-10-06T22:11:07.110Z,8.32
2022-10-06T22:13:36.210Z,8.46
2022-10-06T22:16:05.861Z,8.49
2022-10-06T22:18:36.091Z,8.31
2022-10-06T22:21:15.791Z,8.26
2022-10-06T22:23:47.226Z,8.37
2022-10-06T22:26:17.516Z,8.46
2022-10-06T22:28:49.236Z,8.39
2022-10-06T22:32:46.089Z,8.37
2022-10-06T22:35:15.069Z,8.27
2022-10-06T22:37:45.866Z,8.39
2022-10-06T22:40:15.253Z,8.34
2022-10-06T22:42:44.096Z,8.19
2022-10-06T22:45:13.033Z,8.25
2022-10-06T22:47:42.130Z,8.18
2022-10-06T22:50:11.478Z,8.14
2022-10-06T22:52:40.356Z,8.05
2022-10-06T22:55:11.062Z,7.96
2022-10-06T22:57:39.897Z,7.94
2022-10-06T23:00:10.578Z,7.88
2022-10-06T23:02:39.286Z,8.03
2022-10-06T23:05:08.757Z,8.14
2022-10-06T23:07:37.584Z,8.00
2022-10-06T23:10:07.361Z,7.92
2022-10-06T23:12:37.545Z,7.84
2022-10-06T23:15:11.443Z,7.82
2022-10-06T23:17:40.295Z,7.86
2022-10-06T23:20:10.507Z,7.88
2022-10-06T23:22:39.530Z,7.76
2022-10-06T23:25:10.155Z,7.75
2022-10-06T23:27:40.750Z,7.73
2022-10-06T23:30:11.698Z,7.66
2022-10-06T23:32:40.870Z,7.71
2022-10-06T23:35:10.590Z,7.79
2022-10-06T23:37:40.045Z,7.90
2022-10-06T23:40:10.294Z,7.81
2022-10-06T23:42:40.483Z,7.71
2022-10-06T23:45:10.622Z,7.68
2022-10-06T23:47:39.412Z,7.72
2022-10-06T23:50:09.241Z,7.79
2022-10-06T23:52:38.438Z,7.67
2022-10-06T23:55:08.264Z,7.67
2022-10-06T23:57:40.451Z,7.60
